Time;durP1;ratioP1;P1;durP2;ratioP2;P2;SDS_P1;SDS_P2;PMS_P1;PMS_P2;Temp;Humidity;BMP_temperature;BMP_pressure;BME280_temperature;BME280_humidity;BME280_pressure;Samples;Min_cycle;Max_cycle;Signal;HPM_P1;HPM_P2
2022/05/17 00:00:53;;;;;;;;;;;;;;;27.93;31.59;99144.22;4469227;32;35164;-88
2022/05/17 00:03:20;;;;;;;;;;;;;;;28.07;31.45;99144.25;4483326;32;34284;-87
2022/05/17 00:05:48;;;;;;;;;;;;;;;28.04;31.49;99140.91;4474044;32;32836;-88
2022/05/17 00:08:15;;;;;;;;;;;;;;;28.07;31.51;99135.38;4468119;32;33923;-86
2022/05/17 00:10:43;;;;;;;;;;;;;;;28.01;31.66;99130.44;4476380;32;34147;-88
2022/05/17 00:13:11;;;;;;;;;;;;;;;27.94;31.63;99129.94;4475627;32;34966;-88
2022/05/17 00:15:39;;;;;;;;;;;;;;;27.84;31.71;99121.62;4475542;32;34233;-88
2022/05/17 00:18:06;;;;;;;;;;;;;;;27.91;31.75;99113.25;4468038;32;34347;-87
2022/05/17 00:20:33;;;;;;;;;;;;;;;27.92;31.71;99115.84;4480937;32;33967;-88
2022/05/17 00:23:02;;;;;;;;;;;;;;;27.79;31.89;99110.38;4476141;32;34586;-87
2022/05/17 00:25:29;;;;;;;;;;;;;;;27.65;31.91;99119.16;4470343;32;34442;-87
2022/05/17 00:27:57;;;;;;;;;;;;;;;27.67;31.88;99115.53;4471435;32;35029;-88
2022/05/17 00:30:24;;;;;;;;;;;;;;;27.72;31.63;99105.47;4468315;32;35282;-87
2022/05/17 00:32:51;;;;;;;;;;;;;;;27.70;31.72;99104.72;4473729;32;34998;-88
2022/05/17 00:35:19;;;;;;;;;;;;;;;27.63;31.77;99102.37;4472713;32;33585;-88
2022/05/17 00:37:47;;;;;;;;;;;;;;;27.81;31.58;99102.31;4476746;32;34400;-88
2022/05/17 00:40:14;;;;;;;;;;;;;;;27.74;31.86;99100.91;4483159;32;34465;-87
2022/05/17 00:42:42;;;;;;;;;;;;;;;27.63;31.99;99110.38;4479921;32;34000;-86
2022/05/17 00:45:09;;;;;;;;;;;;;;;27.65;32.13;99102.28;4479829;32;33176;-87
2022/05/17 00:48:04;;;;;;;;;;;;;;;27.11;33.46;99102.69;4482375;32;34878;-88
2022/05/17 00:50:32;;;;;;;;;;;;;;;27.45;32.88;99106.12;4483450;32;34824;-88
2022/05/17 00:53:20;;;;;;;;;;;;;;;27.67;32.55;99100.41;4462941;32;34315;-88
2022/05/17 00:55:54;;;;;;;;;;;;;;;27.50;32.81;99104.03;4475739;32;33699;-88
2022/05/17 00:58:24;;;;;;;;;;;;;;;27.33;32.97;99101.50;4470542;32;34354;-88
2022/05/17 01:00:54;;;;;;;;;;;;;;;27.36;32.86;99101.34;4453309;32;34496;-88
2022/05/17 01:03:21;;;;;;;;;;;;;;;27.42;32.72;99100.97;4453549;32;34244;-87
2022/05/17 01:05:50;;;;;;;;;;;;;;;27.57;32.38;99096.56;4459553;32;33808;-87
2022/05/17 01:08:18;;;;;;;;;;;;;;;27.49;32.61;99090.81;4456254;32;34293;-88
2022/05/17 01:10:45;;;;;;;;;;;;;;;27.39;32.85;99093.19;4470878;32;35272;-89
2022/05/17 01:15:59;;;;;;;;;;;;;;;27.29;32.96;99087.50;4476206;32;33711;-89
2022/05/17 01:18:27;;;;;;;;;;;;;;;27.45;32.60;99087.47;4482431;32;34213;-87
2022/05/17 01:20:56;;;;;;;;;;;;;;;27.52;32.51;99080.84;4465419;32;34272;-87
2022/05/17 01:23:24;;;;;;;;;;;;;;;27.43;32.65;99084.06;4473605;32;35403;-88
2022/05/17 01:25:51;;;;;;;;;;;;;;;27.37;33.00;99079.94;4477687;32;33836;-88
2022/05/17 01:28:22;;;;;;;;;;;;;;;27.44;32.94;99088.44;4478737;32;35333;-89
2022/05/17 01:30:50;;;;;;;;;;;;;;;27.48;32.80;99081.97;4471491;32;34424;-89
2022/05/17 01:33:19;;;;;;;;;;;;;;;27.35;33.00;99083.62;4476416;32;34041;-87
2022/05/17 01:35:46;;;;;;;;;;;;;;;27.34;33.02;99093.41;4459568;32;33199;-88
2022/05/17 01:38:14;;;;;;;;;;;;;;;27.43;32.64;99084.06;4481809;32;34220;-89
2022/05/17 01:40:41;;;;;;;;;;;;;;;27.22;33.33;99078.16;4479848;32;35213;-88
2022/05/17 01:43:08;;;;;;;;;;;;;;;27.49;33.31;99078.37;4479176;32;33690;-89
2022/05/17 01:45:36;;;;;;;;;;;;;;;27.50;33.02;99076.56;4469126;32;34152;-89
2022/05/17 01:48:04;;;;;;;;;;;;;;;27.61;32.82;99072.31;4476121;32;34242;-88
2022/05/17 01:50:31;;;;;;;;;;;;;;;27.66;32.70;99072.06;4469336;32;34067;-88
2022/05/17 01:52:59;;;;;;;;;;;;;;;27.58;32.71;99075.19;4467048;32;33633;-89
2022/05/17 01:55:26;;;;;;;;;;;;;;;27.54;32.90;99062.09;4467325;32;33535;-88
2022/05/17 01:57:53;;;;;;;;;;;;;;;27.60;32.78;99064.44;4481386;32;33868;-88
2022/05/17 02:00:23;;;;;;;;;;;;;;;27.71;32.82;99067.31;4481437;32;34887;-89
2022/05/17 02:02:51;;;;;;;;;;;;;;;27.62;33.09;99076.72;4480094;32;34536;-89
2022/05/17 02:05:19;;;;;;;;;;;;;;;27.40;33.42;99071.78;4460732;32;33447;-88
2022/05/17 02:07:50;;;;;;;;;;;;;;;27.50;33.25;99066.75;4452822;32;34087;-89
2022/05/17 02:10:18;;;;;;;;;;;;;;;27.56;33.06;99073.53;4476514;31;35235;-89
2022/05/17 02:12:45;;;;;;;;;;;;;;;27.63;33.00;99078.41;4480849;32;35043;-88
2022/05/17 02:15:12;;;;;;;;;;;;;;;27.41;33.34;99072.63;4468938;32;33062;-86
2022/05/17 02:17:40;;;;;;;;;;;;;;;27.52;33.36;99064.88;4475075;32;33685;-87
2022/05/17 02:20:07;;;;;;;;;;;;;;;27.58;33.59;99056.53;4483064;31;34199;-86
2022/05/17 02:22:35;;;;;;;;;;;;;;;27.78;33.45;99059.84;4469185;32;33445;-85
2022/05/17 02:25:02;;;;;;;;;;;;;;;27.42;33.92;99067.19;4468649;32;33479;-86
2022/05/17 02:27:30;;;;;;;;;;;;;;;27.40;34.04;99060.28;4478420;32;35102;-85
2022/05/17 02:29:57;;;;;;;;;;;;;;;27.54;33.76;99065.66;4470847;32;34388;-84
2022/05/17 02:32:25;;;;;;;;;;;;;;;27.67;33.46;99056.94;4483261;32;33587;-86
2022/05/17 02:34:53;;;;;;;;;;;;;;;27.61;33.56;99056.34;4468465;32;32940;-86
2022/05/17 02:37:20;;;;;;;;;;;;;;;27.73;33.35;99056.56;4478109;32;33967;-86
2022/05/17 02:39:47;;;;;;;;;;;;;;;27.73;33.21;99056.56;4468396;32;34105;-84
2022/05/17 02:42:15;;;;;;;;;;;;;;;27.37;33.94;99071.09;4472107;32;33951;-86
2022/05/17 02:44:42;;;;;;;;;;;;;;;27.30;34.23;99069.72;4482255;32;34298;-85
2022/05/17 02:47:09;;;;;;;;;;;;;;;27.45;33.98;99060.00;4481813;32;34264;-86
2022/05/17 02:49:40;;;;;;;;;;;;;;;27.63;33.73;99065.09;4469347;32;35285;-86
2022/05/17 02:52:07;;;;;;;;;;;;;;;27.43;34.21;99078.75;4469798;32;34278;-86
2022/05/17 02:54:35;;;;;;;;;;;;;;;27.09;34.73;99077.97;4465884;32;33290;-85
2022/05/17 02:57:02;;;;;;;;;;;;;;;26.99;35.02;99075.91;4475582;32;34231;-85
2022/05/17 02:59:29;;;;;;;;;;;;;;;27.13;34.55;99073.34;4468495;32;35216;-86
2022/05/17 03:01:57;;;;;;;;;;;;;;;27.44;34.14;99077.78;4480041;32;34180;-86
2022/05/17 03:04:26;;;;;;;;;;;;;;;27.57;33.97;99072.59;4472904;32;33249;-85
2022/05/17 03:06:56;;;;;;;;;;;;;;;27.65;33.87;99071.22;4476749;32;35165;-87
2022/05/17 03:09:24;;;;;;;;;;;;;;;26.79;35.97;99103.63;4469571;32;34472;-87
2022/05/17 03:11:52;;;;;;;;;;;;;;;26.50;34.61;99099.84;4480600;32;33823;-87
2022/05/17 03:14:21;;;;;;;;;;;;;;;26.17;35.06;99103.31;4468154;32;33359;-87
2022/05/17 03:16:49;;;;;;;;;;;;;;;26.01;35.45;99097.94;4472491;32;33790;-88
2022/05/17 03:19:17;;;;;;;;;;;;;;;26.17;35.30;99103.31;4454429;32;35307;-87
2022/05/17 03:21:44;;;;;;;;;;;;;;;25.72;36.33;99102.91;4461435;32;33453;-88
2022/05/17 03:24:11;;;;;;;;;;;;;;;26.01;35.99;99107.72;4469134;32;34017;-87
2022/05/17 03:26:59;;;;;;;;;;;;;;;26.25;35.79;99108.22;4480967;32;34684;-87
2022/05/17 03:29:26;;;;;;;;;;;;;;;26.12;35.92;99106.22;4458068;32;33894;-86
2022/05/17 03:31:54;;;;;;;;;;;;;;;26.46;35.18;99108.94;4468317;32;34124;-87
2022/05/17 03:34:21;;;;;;;;;;;;;;;25.81;36.48;99112.25;4469448;32;32816;-87
2022/05/17 03:36:49;;;;;;;;;;;;;;;26.32;35.86;99117.59;4455890;32;33602;-88
2022/05/17 03:39:16;;;;;;;;;;;;;;;26.48;35.50;99102.63;4477676;32;34099;-88
2022/05/17 03:41:44;;;;;;;;;;;;;;;27.12;34.53;99103.56;4472583;32;34665;-88
2022/05/17 03:44:11;;;;;;;;;;;;;;;27.11;34.87;99115.16;4468594;32;33125;-87
2022/05/17 03:46:38;;;;;;;;;;;;;;;27.31;34.52;99114.03;4470747;32;32640;-88
2022/05/17 03:49:09;;;;;;;;;;;;;;;27.17;35.04;99109.50;4476754;32;34306;-87
2022/05/17 03:51:37;;;;;;;;;;;;;;;27.16;34.82;99105.09;4468855;32;33875;-87
2022/05/17 03:54:04;;;;;;;;;;;;;;;27.30;34.82;99110.50;4457660;32;33418;-87
2022/05/17 03:56:32;;;;;;;;;;;;;;;27.02;35.73;99110.31;4453958;32;33203;-88
2022/05/17 03:58:59;;;;;;;;;;;;;;;27.17;35.85;99102.37;4475982;32;33837;-88
2022/05/17 04:01:26;;;;;;;;;;;;;;;27.37;35.46;99095.91;4468856;32;33589;-88
2022/05/17 04:03:54;;;;;;;;;;;;;;;27.71;34.87;99093.09;4479030;31;33103;-88
2022/05/17 04:06:23;;;;;;;;;;;;;;;27.53;35.47;99098.53;4471282;32;34001;-89
2022/05/17 04:08:50;;;;;;;;;;;;;;;27.71;35.11;99085.97;4459671;32;35201;-88
2022/05/17 04:11:18;;;;;;;;;;;;;;;28.00;34.62;99097.59;4467869;32;33840;-87
2022/05/17 04:13:45;;;;;;;;;;;;;;;27.69;35.38;99092.31;4468143;32;33776;-87
2022/05/17 04:16:14;;;;;;;;;;;;;;;27.81;34.93;99086.31;4476606;32;34338;-86
2022/05/17 04:18:42;;;;;;;;;;;;;;;27.91;34.64;99095.47;4476633;32;34185;-89
2022/05/17 04:21:09;;;;;;;;;;;;;;;27.99;34.67;99098.53;4475673;32;33559;-88
2022/05/17 04:23:37;;;;;;;;;;;;;;;27.75;35.28;99089.34;4481782;32;33629;-89
2022/05/17 04:26:05;;;;;;;;;;;;;;;27.53;35.48;99093.22;4472946;32;34146;-88
2022/05/17 04:28:32;;;;;;;;;;;;;;;27.71;35.24;99085.09;4472465;32;34243;-89
2022/05/17 04:31:00;;;;;;;;;;;;;;;28.02;34.38;99086.84;4482853;32;34144;-90
2022/05/17 04:33:27;;;;;;;;;;;;;;;27.84;34.42;99087.00;4474775;32;33231;-88
2022/05/17 04:35:54;;;;;;;;;;;;;;;27.91;34.73;99089.28;4475278;31;33736;-87
2022/05/17 04:38:22;;;;;;;;;;;;;;;27.85;34.20;99087.84;4477458;32;36635;-90
2022/05/17 04:40:49;;;;;;;;;;;;;;;27.36;33.88;99077.38;4466619;32;34190;-88
2022/05/17 04:43:17;;;;;;;;;;;;;;;25.70;36.80;99083.53;4475885;32;33817;-87
2022/05/17 04:45:45;;;;;;;;;;;;;;;26.39;35.86;99087.09;4476236;32;34272;-88
2022/05/17 04:48:12;;;;;;;;;;;;;;;26.34;35.94;99091.81;4473752;32;33871;-91
2022/05/17 04:50:40;;;;;;;;;;;;;;;25.73;37.27;99099.31;4463651;32;34272;-90
2022/05/17 04:53:07;;;;;;;;;;;;;;;25.51;37.78;99101.31;4467469;32;33394;-91
2022/05/17 04:55:35;;;;;;;;;;;;;;;25.33;38.23;99104.88;4481219;32;34366;-87
2022/05/17 04:58:02;;;;;;;;;;;;;;;25.48;38.23;99102.31;4468943;32;34055;-90
2022/05/17 05:00:29;;;;;;;;;;;;;;;25.16;38.53;99103.91;4457621;32;34084;-89
2022/05/17 05:02:57;;;;;;;;;;;;;;;25.60;37.97;99095.53;4468807;32;31990;-87
2022/05/17 05:05:31;;;;;;;;;;;;;;;24.83;39.57;99105.47;4479178;31;33863;-86
2022/05/17 05:07:59;;;;;;;;;;;;;;;25.11;39.36;99100.59;4461162;32;34532;-94
2022/05/17 05:10:26;;;;;;;;;;;;;;;25.72;37.95;99094.97;4466623;32;33935;-92
2022/05/17 05:12:53;;;;;;;;;;;;;;;24.86;39.46;99100.03;4477467;32;34043;-90
2022/05/17 05:15:21;;;;;;;;;;;;;;;24.96;39.53;99088.03;4483114;32;34868;-90
2022/05/17 05:17:49;;;;;;;;;;;;;;;24.47;40.65;99092.94;4468891;32;34000;-88
2022/05/17 05:20:16;;;;;;;;;;;;;;;24.51;40.67;99100.72;4483094;32;33739;-89
2022/05/17 05:22:44;;;;;;;;;;;;;;;25.04;39.48;99096.50;4473706;32;33414;-88
2022/05/17 05:25:12;;;;;;;;;;;;;;;24.36;40.80;99105.78;4453388;32;34825;-87
2022/05/17 05:27:40;;;;;;;;;;;;;;;25.35;38.59;99100.38;4453239;32;34405;-86
2022/05/17 05:30:09;;;;;;;;;;;;;;;25.31;39.69;99104.09;4475751;32;34819;-86
2022/05/17 05:32:36;;;;;;;;;;;;;;;24.75;39.54;99105.81;4440731;32;33089;-87
2022/05/17 05:35:04;;;;;;;;;;;;;;;24.48;41.01;99105.28;4452976;32;33348;-88
2022/05/17 05:37:35;;;;;;;;;;;;;;;24.72;40.30;99103.31;4466972;32;34898;-87
2022/05/17 05:40:03;;;;;;;;;;;;;;;24.78;39.97;99107.47;4453212;32;34439;-87
2022/05/17 05:42:30;;;;;;;;;;;;;;;24.31;41.47;99108.63;4475118;32;33525;-87
2022/05/17 05:44:57;;;;;;;;;;;;;;;23.84;42.53;99100.97;4482630;32;34150;-87
2022/05/17 05:47:25;;;;;;;;;;;;;;;24.08;42.58;99108.78;4483330;32;34365;-87
2022/05/17 05:49:52;;;;;;;;;;;;;;;24.46;41.84;99099.19;4484645;32;34560;-87
2022/05/17 05:52:19;;;;;;;;;;;;;;;23.88;42.94;99099.06;4483329;32;33529;-87
2022/05/17 05:54:47;;;;;;;;;;;;;;;24.71;41.65;99104.25;4484156;32;33847;-87
2022/05/17 05:57:14;;;;;;;;;;;;;;;24.81;41.85;99102.00;4484493;31;34841;-86
2022/05/17 05:59:42;;;;;;;;;;;;;;;25.00;41.88;99109.06;4470562;32;34295;-86
2022/05/17 06:02:09;;;;;;;;;;;;;;;24.95;41.84;99115.50;4484601;32;34210;-86
2022/05/17 06:04:37;;;;;;;;;;;;;;;24.40;43.49;99107.44;4484595;32;34620;-87
2022/05/17 06:07:05;;;;;;;;;;;;;;;23.74;45.18;99108.44;4470300;32;33146;-86
2022/05/17 06:09:33;;;;;;;;;;;;;;;24.42;43.74;99122.31;4484259;32;34135;-86
2022/05/17 06:12:00;;;;;;;;;;;;;;;24.18;44.74;99123.38;4484387;32;34532;-87
2022/05/17 06:14:28;;;;;;;;;;;;;;;25.21;42.77;99115.16;4484238;32;35108;-88
2022/05/17 06:16:55;;;;;;;;;;;;;;;24.54;44.01;99120.88;4471116;32;35292;-87
2022/05/17 06:19:23;;;;;;;;;;;;;;;25.75;41.48;99114.31;4455182;32;34784;-87
2022/05/17 06:21:51;;;;;;;;;;;;;;;25.22;42.67;99113.34;4468553;32;33408;-85
2022/05/17 06:24:19;;;;;;;;;;;;;;;25.26;42.98;99119.38;4469016;32;34322;-85
2022/05/17 06:26:46;;;;;;;;;;;;;;;25.54;42.99;99135.69;4469376;32;34372;-86
2022/05/17 06:29:13;;;;;;;;;;;;;;;25.58;42.38;99128.44;4484204;32;34080;-88
2022/05/17 06:31:42;;;;;;;;;;;;;;;24.38;44.91;99130.44;4484474;32;33472;-87
2022/05/17 06:34:10;;;;;;;;;;;;;;;24.16;45.69;99136.66;4484329;32;34279;-87
2022/05/17 06:36:38;;;;;;;;;;;;;;;24.58;45.10;99132.22;4483603;32;34514;-88
2022/05/17 06:39:20;;;;;;;;;;;;;;;26.08;41.92;99128.56;4471731;32;34822;-86
2022/05/17 06:41:47;;;;;;;;;;;;;;;25.83;42.86;99123.63;4482471;31;33579;-86
2022/05/17 06:44:15;;;;;;;;;;;;;;;25.51;43.37;99142.94;4468689;32;34945;-87
2022/05/17 06:46:42;;;;;;;;;;;;;;;25.33;43.79;99131.41;4468610;32;35303;-88
2022/05/17 06:49:09;;;;;;;;;;;;;;;26.26;42.07;99128.56;4468323;32;34530;-86
2022/05/17 06:51:37;;;;;;;;;;;;;;;25.69;42.93;99129.63;4468535;32;33287;-86
2022/05/17 06:54:05;;;;;;;;;;;;;;;26.46;41.55;99139.03;4484049;31;34397;-87
2022/05/17 06:56:33;;;;;;;;;;;;;;;25.92;43.21;99131.16;4483999;32;33761;-86
2022/05/17 06:59:01;;;;;;;;;;;;;;;26.73;40.88;99139.37;4483908;32;34445;-88
2022/05/17 07:01:29;;;;;;;;;;;;;;;26.69;41.23;99138.66;4470229;32;33459;-86
2022/05/17 07:03:56;;;;;;;;;;;;;;;26.60;41.69;99127.69;4468432;32;34251;-87
2022/05/17 07:06:23;;;;;;;;;;;;;;;25.63;43.63;99124.59;4468483;32;34192;-88
2022/05/17 07:08:51;;;;;;;;;;;;;;;25.09;43.99;99134.28;4469206;32;33847;-86
2022/05/17 07:14:05;;;;;;;;;;;;;;;25.58;43.10;99139.06;4479654;31;33906;-87
2022/05/17 07:16:33;;;;;;;;;;;;;;;26.37;41.88;99134.19;4483873;32;34282;-88
2022/05/17 07:19:00;;;;;;;;;;;;;;;25.91;42.75;99134.75;4476663;32;33463;-89
2022/05/17 07:21:48;;;;;;;;;;;;;;;25.62;43.27;99138.81;4477679;32;34223;-85
2022/05/17 07:24:18;;;;;;;;;;;;;;;26.06;42.97;99133.09;4475799;31;35273;-87
2022/05/17 07:26:46;;;;;;;;;;;;;;;25.94;42.74;99133.72;4481174;31;34530;-86
2022/05/17 07:29:33;;;;;;;;;;;;;;;25.75;43.36;99136.41;4483846;31;34132;-87
2022/05/17 07:32:01;;;;;;;;;;;;;;;26.44;41.19;99154.16;4466896;32;33333;-85
2022/05/17 07:34:28;;;;;;;;;;;;;;;26.44;41.87;99146.19;4471993;32;34161;-84
2022/05/17 07:36:56;;;;;;;;;;;;;;;26.01;43.24;99144.91;4482499;32;34409;-86
2022/05/17 07:39:23;;;;;;;;;;;;;;;26.79;41.71;99154.16;4483453;32;34214;-85
2022/05/17 07:41:52;;;;;;;;;;;;;;;26.15;42.57;99147.72;4482634;32;33513;-84
2022/05/17 07:44:20;;;;;;;;;;;;;;;25.47;44.24;99151.03;4474086;32;34531;-91
2022/05/17 07:46:47;;;;;;;;;;;;;;;26.75;42.40;99155.25;4483076;32;34493;-87
2022/05/17 07:49:14;;;;;;;;;;;;;;;27.06;41.17;99152.63;4476106;32;34365;-85
2022/05/17 07:51:42;;;;;;;;;;;;;;;25.40;44.72;99152.28;4480950;32;34420;-84
2022/05/17 07:54:09;;;;;;;;;;;;;;;25.44;44.94;99155.66;4480861;32;35121;-84
2022/05/17 07:56:36;;;;;;;;;;;;;;;25.65;44.70;99159.91;4467903;32;34094;-85
2022/05/17 07:59:06;;;;;;;;;;;;;;;25.56;45.11;99154.19;4468067;32;34203;-85
2022/05/17 08:01:33;;;;;;;;;;;;;;;25.43;45.05;99152.12;4468093;32;33223;-85
2022/05/17 08:04:02;;;;;;;;;;;;;;;24.63;47.53;99156.75;4470733;32;34350;-85
2022/05/17 08:06:29;;;;;;;;;;;;;;;24.71;47.01;99159.91;4473315;32;35016;-84
2022/05/17 08:08:56;;;;;;;;;;;;;;;25.03;46.12;99158.41;4480325;32;34808;-85
2022/05/17 08:11:24;;;;;;;;;;;;;;;25.33;44.89;99160.59;4482841;32;33575;-85
2022/05/17 08:13:51;;;;;;;;;;;;;;;26.16;43.31;99150.28;4483658;32;35126;-85
2022/05/17 08:16:38;;;;;;;;;;;;;;;25.21;46.35;99164.69;4483431;32;34489;-84
2022/05/17 08:19:05;;;;;;;;;;;;;;;25.75;45.15;99159.44;4483626;32;35099;-83
2022/05/17 08:21:33;;;;;;;;;;;;;;;25.33;45.94;99164.13;4483527;31;33265;-86
2022/05/17 08:24:00;;;;;;;;;;;;;;;25.83;44.54;99170.59;4483795;31;34806;-86
2022/05/17 08:29:14;;;;;;;;;;;;;;;25.03;46.70;99166.38;4471485;32;34896;-85
2022/05/17 08:31:41;;;;;;;;;;;;;;;25.08;46.37;99169.69;4483614;32;33525;-80
2022/05/17 08:34:10;;;;;;;;;;;;;;;24.97;46.77;99172.00;4483420;32;34266;-85
2022/05/17 08:36:38;;;;;;;;;;;;;;;25.43;45.47;99180.47;4483121;31;34457;-85
2022/05/17 08:39:05;;;;;;;;;;;;;;;24.28;48.42;99180.31;4469116;32;34085;-85
2022/05/17 08:41:50;;;;;;;;;;;;;;;24.86;46.71;99176.91;4470749;32;33859;-86
2022/05/17 08:44:18;;;;;;;;;;;;;;;25.09;45.68;99179.38;4469112;32;35217;-86
2022/05/17 08:47:05;;;;;;;;;;;;;;;24.89;46.47;99184.72;4483044;32;35244;-85
2022/05/17 08:49:57;;;;;;;;;;;;;;;24.85;46.88;99177.81;4483064;32;33635;-87
2022/05/17 08:52:25;;;;;;;;;;;;;;;23.83;49.61;99189.28;4450646;32;33705;-84
2022/05/17 08:54:58;;;;;;;;;;;;;;;24.67;47.79;99183.03;4452000;32;34047;-85
2022/05/17 08:57:32;;;;;;;;;;;;;;;25.19;46.82;99186.00;4450754;32;34454;-86
2022/05/17 09:00:09;;;;;;;;;;;;;;;23.78;51.05;99192.09;4452013;32;33739;-83
2022/05/17 09:02:44;;;;;;;;;;;;;;;23.65;53.40;99198.78;4450937;32;33759;-82
2022/05/17 09:05:30;;;;;;;;;;;;;;;24.33;52.56;99203.97;4451681;32;34039;-82
2022/05/17 09:08:17;;;;;;;;;;;;;;;23.61;54.64;99207.78;4451963;32;33906;-82
2022/05/17 09:10:50;;;;;;;;;;;;;;;24.30;53.47;99204.94;4451736;32;34215;-82
2022/05/17 09:13:25;;;;;;;;;;;;;;;24.27;54.00;99205.06;4451703;32;33408;-81
2022/05/17 09:15:57;;;;;;;;;;;;;;;24.44;53.16;99199.97;4450502;32;35444;-82
2022/05/17 09:18:24;;;;;;;;;;;;;;;24.12;54.32;99209.22;4450498;32;34363;-82
2022/05/17 09:20:52;;;;;;;;;;;;;;;24.00;55.03;99209.75;4450164;32;33175;-82
2022/05/17 09:23:19;;;;;;;;;;;;;;;24.04;54.94;99206.06;4450612;32;33826;-81
2022/05/17 09:25:46;;;;;;;;;;;;;;;24.78;53.55;99201.13;4451875;32;33825;-82
2022/05/17 09:28:19;;;;;;;;;;;;;;;25.11;52.75;99206.69;4451427;32;33938;-81
2022/05/17 09:30:47;;;;;;;;;;;;;;;25.14;51.34;99201.25;4450137;32;34740;-84
2022/05/17 09:33:20;;;;;;;;;;;;;;;25.17;52.48;99200.28;4451438;32;33684;-85
2022/05/17 09:35:55;;;;;;;;;;;;;;;25.03;52.97;99202.66;4450442;32;34232;-82
2022/05/17 09:38:24;;;;;;;;;;;;;;;25.63;50.41;99187.47;4450520;32;35120;-82
2022/05/17 09:40:57;;;;;;;;;;;;;;;25.52;51.27;99193.28;4451339;32;34204;-82
2022/05/17 09:43:25;;;;;;;;;;;;;;;25.85;51.07;99189.97;4450241;32;33524;-82
2022/05/17 09:45:58;;;;;;;;;;;;;;;25.54;52.19;99188.78;4450245;32;34290;-83
2022/05/17 09:48:31;;;;;;;;;;;;;;;26.34;49.74;99184.84;4451440;32;34351;-82
2022/05/17 09:53:46;;;;;;;;;;;;;;;26.05;50.39;99179.19;4465928;32;34355;-82
2022/05/17 09:56:13;;;;;;;;;;;;;;;26.57;49.03;99178.34;4465565;32;33626;-82
2022/05/17 09:58:41;;;;;;;;;;;;;;;26.72;48.94;99179.34;4466555;32;34039;-82
2022/05/17 10:01:19;;;;;;;;;;;;;;;26.89;48.02;99181.94;4465600;32;33909;-82
2022/05/17 10:03:59;;;;;;;;;;;;;;;26.65;48.10;99184.13;4465207;32;34045;-82
2022/05/17 10:06:34;;;;;;;;;;;;;;;26.36;49.53;99188.25;4466571;32;34074;-84
2022/05/17 10:09:04;;;;;;;;;;;;;;;26.52;49.91;99183.94;4465359;32;34488;-82
2022/05/17 10:11:41;;;;;;;;;;;;;;;26.15;50.45;99176.94;4466649;32;34294;-82
2022/05/17 10:14:27;;;;;;;;;;;;;;;25.83;51.36;99178.56;4466766;32;32636;-82
2022/05/17 10:17:10;;;;;;;;;;;;;;;26.00;50.33;99181.25;4466474;32;34142;-82
2022/05/17 10:19:45;;;;;;;;;;;;;;;26.10;50.45;99182.50;4465652;32;34468;-86
2022/05/17 10:22:15;;;;;;;;;;;;;;;25.69;49.96;99177.41;4465309;32;33840;-82
2022/05/17 10:24:49;;;;;;;;;;;;;;;25.12;52.34;99181.91;4465238;32;33957;-83
2022/05/17 10:27:19;;;;;;;;;;;;;;;25.64;52.25;99176.75;4466411;32;33722;-83
2022/05/17 10:29:48;;;;;;;;;;;;;;;25.94;50.32;99171.75;4467247;32;34570;-83
2022/05/17 10:32:19;;;;;;;;;;;;;;;26.47;49.57;99170.00;4466103;32;34247;-83
2022/05/17 10:35:06;;;;;;;;;;;;;;;26.99;48.90;99171.69;4467693;32;34408;-82
2022/05/17 10:37:36;;;;;;;;;;;;;;;26.74;48.01;99180.13;4468538;32;33790;-87
2022/05/17 10:40:07;;;;;;;;;;;;;;;26.44;48.02;99180.75;4467445;32;35333;-83
2022/05/17 10:42:36;;;;;;;;;;;;;;;26.33;48.57;99175.12;4467391;32;34501;-83
2022/05/17 10:45:03;;;;;;;;;;;;;;;26.16;50.35;99176.88;4467564;32;33519;-84
2022/05/17 10:47:43;;;;;;;;;;;;;;;26.19;49.25;99175.84;4467069;32;33973;-83
2022/05/17 10:50:13;;;;;;;;;;;;;;;26.62;48.12;99187.78;4469939;32;34132;-83
2022/05/17 10:52:44;;;;;;;;;;;;;;;26.70;49.06;99182.06;4469930;32;33879;-84
2022/05/17 10:55:14;;;;;;;;;;;;;;;26.83;48.26;99177.84;4470133;32;33373;-85
2022/05/17 10:57:57;;;;;;;;;;;;;;;27.24;47.68;99180.06;4469930;32;33598;-84
2022/05/17 11:00:39;;;;;;;;;;;;;;;25.96;48.64;99174.38;4484279;32;34387;-84
2022/05/17 11:03:18;;;;;;;;;;;;;;;26.17;48.75;99169.75;4469932;32;33919;-84
2022/05/17 11:05:54;;;;;;;;;;;;;;;26.66;46.93;99186.69;4470117;32;33568;-84
2022/05/17 11:08:33;;;;;;;;;;;;;;;25.92;47.71;99180.78;4484066;32;33912;-84
2022/05/17 11:11:24;;;;;;;;;;;;;;;25.63;51.16;99177.72;4483974;32;34178;-84
2022/05/17 11:13:55;;;;;;;;;;;;;;;25.70;48.66;99171.16;4454928;32;34153;-84
2022/05/17 11:16:25;;;;;;;;;;;;;;;26.31;47.92;99169.06;4469760;32;33633;-84
2022/05/17 11:18:57;;;;;;;;;;;;;;;26.61;48.42;99169.28;4469815;32;33741;-84
2022/05/17 11:21:29;;;;;;;;;;;;;;;27.07;47.41;99167.66;4484141;32;34878;-84
2022/05/17 11:24:02;;;;;;;;;;;;;;;27.34;47.15;99165.28;4470001;32;34313;-84
2022/05/17 11:26:33;;;;;;;;;;;;;;;26.93;48.77;99163.09;4470062;32;33333;-84
2022/05/17 11:29:10;;;;;;;;;;;;;;;26.56;49.38;99166.00;4483953;31;34985;-84
2022/05/17 11:31:50;;;;;;;;;;;;;;;27.58;46.90;99149.75;4483889;32;35167;-84
2022/05/17 11:34:31;;;;;;;;;;;;;;;27.58;45.14;99149.75;4483969;32;34090;-84
2022/05/17 11:36:59;;;;;;;;;;;;;;;28.11;45.11;99147.59;4484091;32;33220;-84
2022/05/17 11:39:39;;;;;;;;;;;;;;;28.47;43.89;99143.69;4483751;32;35056;-84
2022/05/17 11:42:11;;;;;;;;;;;;;;;27.98;45.45;99142.13;4483879;32;35290;-85
2022/05/17 11:44:45;;;;;;;;;;;;;;;27.84;45.89;99134.06;4468672;32;34329;-85
2022/05/17 11:47:28;;;;;;;;;;;;;;;28.58;44.43;99134.06;4469631;32;32531;-85
2022/05/17 11:50:25;;;;;;;;;;;;;;;27.96;44.07;99127.16;4483980;32;34984;-85
2022/05/17 11:53:13;;;;;;;;;;;;;;;28.13;44.63;99129.69;4471123;32;34184;-85
2022/05/17 11:55:40;;;;;;;;;;;;;;;27.71;46.44;99127.72;4483665;32;34573;-86
2022/05/17 11:58:08;;;;;;;;;;;;;;;28.38;44.86;99128.25;4483843;32;33580;-85
2022/05/17 12:00:41;;;;;;;;;;;;;;;27.98;46.08;99126.13;4483688;32;34866;-85
2022/05/17 12:03:20;;;;;;;;;;;;;;;28.33;45.08;99125.81;4483805;32;35188;-84
2022/05/17 12:05:47;;;;;;;;;;;;;;;28.71;43.98;99126.16;4469526;32;35048;-85
2022/05/17 12:08:26;;;;;;;;;;;;;;;28.18;45.25;99124.06;4483600;32;34308;-84
2022/05/17 12:11:12;;;;;;;;;;;;;;;27.49;47.09;99130.75;4483676;32;34036;-85
2022/05/17 12:13:44;;;;;;;;;;;;;;;28.45;45.07;99127.78;4483583;31;35120;-85
2022/05/17 12:16:12;;;;;;;;;;;;;;;28.28;43.66;99123.44;4483821;32;34123;-85
2022/05/17 12:18:44;;;;;;;;;;;;;;;27.95;43.10;99114.78;4456517;32;32528;-85
2022/05/17 12:21:15;;;;;;;;;;;;;;;27.80;44.57;99117.41;4469354;32;34299;-84
2022/05/17 12:23:52;;;;;;;;;;;;;;;27.63;45.00;99122.84;4483577;32;34636;-85
2022/05/17 12:26:19;;;;;;;;;;;;;;;27.43;45.95;99118.69;4483993;32;33503;-85
2022/05/17 12:28:49;;;;;;;;;;;;;;;27.14;46.09;99113.19;4483843;31;33607;-85
2022/05/17 12:31:21;;;;;;;;;;;;;;;27.19;45.88;99112.06;4469095;32;34432;-85
2022/05/17 12:33:49;;;;;;;;;;;;;;;26.91;46.24;99122.41;4483478;32;35169;-85
2022/05/17 12:36:26;;;;;;;;;;;;;;;27.14;46.33;99113.19;4483668;32;33911;-85
2022/05/17 12:44:38;;;;;;;;;;;;;;;27.55;45.88;99107.31;4483439;32;34346;-85
2022/05/17 12:47:08;;;;;;;;;;;;;;;28.57;43.66;99108.34;4469795;32;34015;-85
2022/05/17 12:49:36;;;;;;;;;;;;;;;28.81;43.11;99103.28;4469720;32;33513;-85
2022/05/17 12:52:11;;;;;;;;;;;;;;;28.02;45.09;99101.00;4483411;32;33751;-85
2022/05/17 12:54:39;;;;;;;;;;;;;;;27.89;45.34;99103.56;4469603;31;33834;-85
2022/05/17 12:57:20;;;;;;;;;;;;;;;28.10;44.23;99098.72;4468682;32;33902;-85
2022/05/17 12:59:47;;;;;;;;;;;;;;;28.51;43.38;99090.06;4469164;32;34509;-85
2022/05/17 13:02:24;;;;;;;;;;;;;;;28.90;42.81;99087.63;4483283;32;34418;-85
2022/05/17 13:04:52;;;;;;;;;;;;;;;28.97;41.06;99076.47;4483362;32;33823;-85
2022/05/17 13:07:22;;;;;;;;;;;;;;;28.48;43.10;99076.91;4483334;32;34846;-85
2022/05/17 13:09:53;;;;;;;;;;;;;;;27.71;43.15;99085.97;4469111;32;33294;-85
2022/05/17 13:12:21;;;;;;;;;;;;;;;27.73;43.23;99080.53;4482836;32;34111;-85
2022/05/17 13:14:50;;;;;;;;;;;;;;;27.45;43.72;99084.81;4469018;32;35133;-86
2022/05/17 13:17:19;;;;;;;;;;;;;;;25.75;46.98;99085.09;4469199;32;34006;-85
2022/05/17 13:19:47;;;;;;;;;;;;;;;26.75;44.96;99088.78;4468815;31;33367;-85